Time;durP1;ratioP1;P1;durP2;ratioP2;P2;SDS_P1;SDS_P2;PMS_P1;PMS_P2;Temp;Humidity;BMP_temperature;BMP_pressure;BME280_temperature;BME280_humidity;BME280_pressure;Samples;Min_cycle;Max_cycle;Signal;HPM_P1;HPM_P2
2023/03/07 00:01:23;;;;;;;16.43;10.07;;;2.00;99.90;;;;;;5044755;28;20214;-46
2023/03/07 00:03:50;;;;;;;17.40;10.60;;;2.00;99.90;;;;;;5040864;28;20356;-46
2023/03/07 00:06:16;;;;;;;15.40;10.10;;;2.00;99.90;;;;;;5046059;28;20603;-52
2023/03/07 00:08:44;;;;;;;17.20;10.77;;;2.00;99.90;;;;;;5041438;28;20290;-51
2023/03/07 00:11:13;;;;;;;15.77;10.03;;;2.00;99.90;;;;;;5042336;28;20205;-50
2023/03/07 00:13:39;;;;;;;18.47;12.00;;;2.00;99.90;;;;;;5050635;28;20628;-56
2023/03/07 00:16:08;;;;;;;20.10;12.97;;;2.10;99.90;;;;;;5053300;28;20217;-51
2023/03/07 00:18:36;;;;;;;19.90;12.60;;;2.10;99.90;;;;;;5042705;28;20234;-55
2023/03/07 00:21:05;;;;;;;22.57;12.10;;;2.00;99.90;;;;;;5049977;28;20286;-53
2023/03/07 00:23:32;;;;;;;19.30;13.43;;;2.00;99.90;;;;;;5040818;28;20592;-58
2023/03/07 00:26:04;;;;;;;19.43;13.30;;;2.00;99.90;;;;;;5038054;28;20882;-49
2023/03/07 00:28:32;;;;;;;21.00;14.10;;;2.00;99.90;;;;;;5050716;28;20567;-58
2023/03/07 00:31:00;;;;;;;21.33;14.13;;;2.00;99.90;;;;;;5050144;28;20264;-50
2023/03/07 00:33:28;;;;;;;26.53;16.03;;;2.00;99.90;;;;;;5044088;28;20223;-58
2023/03/07 00:35:56;;;;;;;19.97;13.93;;;2.00;99.90;;;;;;5043066;28;20238;-49
2023/03/07 00:38:23;;;;;;;21.47;13.97;;;2.00;99.90;;;;;;5043347;28;20207;-55
2023/03/07 00:40:57;;;;;;;23.70;14.70;;;2.00;99.90;;;;;;5029119;28;20222;-51
2023/03/07 00:43:23;;;;;;;24.10;14.77;;;2.00;99.90;;;;;;5054719;28;20222;-54
2023/03/07 00:45:51;;;;;;;24.87;15.30;;;2.00;99.90;;;;;;5044214;28;20196;-47
2023/03/07 00:48:18;;;;;;;26.20;15.10;;;2.00;99.90;;;;;;5045387;28;20199;-46
2023/03/07 00:50:45;;;;;;;27.70;15.57;;;2.00;99.90;;;;;;5039390;28;20885;-49
2023/03/07 00:53:13;;;;;;;29.03;15.97;;;1.90;99.90;;;;;;5044476;28;20222;-52
2023/03/07 00:55:40;;;;;;;29.83;16.63;;;1.90;99.90;;;;;;5037613;28;20214;-56
2023/03/07 00:58:07;;;;;;;29.90;16.53;;;2.00;99.90;;;;;;5038112;28;20233;-48
2023/03/07 01:00:58;;;;;;;28.87;16.73;;;2.00;99.90;;;;;;5043503;28;20918;-51
2023/03/07 01:03:26;;;;;;;27.20;16.30;;;2.00;99.90;;;;;;5041138;28;20775;-56
2023/03/07 01:05:53;;;;;;;28.67;17.30;;;2.00;99.90;;;;;;5042991;28;20191;-51
2023/03/07 01:08:21;;;;;;;33.17;19.20;;;2.00;99.90;;;;;;5042234;28;20214;-56
2023/03/07 01:10:48;;;;;;;28.00;17.23;;;2.10;99.90;;;;;;5041901;28;20249;-48
2023/03/07 01:13:18;;;;;;;27.00;16.87;;;2.10;99.90;;;;;;5029666;28;20690;-56
2023/03/07 01:15:45;;;;;;;32.83;18.13;;;2.10;99.90;;;;;;5050030;28;20200;-48
2023/03/07 01:18:13;;;;;;;34.70;18.07;;;2.20;99.90;;;;;;5044865;28;20210;-46
2023/03/07 01:20:40;;;;;;;28.57;19.00;;;2.20;99.90;;;;;;5041147;28;20211;-46
2023/03/07 01:23:07;;;;;;;31.57;18.73;;;2.20;99.90;;;;;;5044165;28;20243;-47
2023/03/07 01:25:38;;;;;;;33.43;20.63;;;2.20;99.90;;;;;;5036706;28;20238;-59
2023/03/07 01:28:05;;;;;;;32.27;19.40;;;2.30;99.90;;;;;;5044894;28;20237;-48
2023/03/07 01:30:32;;;;;;;29.10;15.50;;;2.30;99.90;;;;;;5047624;28;20249;-55
2023/03/07 01:33:01;;;;;;;32.33;19.93;;;2.40;99.90;;;;;;5043190;28;20227;-51
2023/03/07 01:35:30;;;;;;;29.20;17.90;;;2.40;99.90;;;;;;5050056;28;20235;-58
2023/03/07 01:37:57;;;;;;;30.37;18.00;;;2.40;99.90;;;;;;5048030;28;20243;-47
2023/03/07 01:40:25;;;;;;;30.37;17.73;;;2.40;99.90;;;;;;5041274;28;20218;-59
2023/03/07 01:42:53;;;;;;;25.87;15.90;;;2.40;99.90;;;;;;5041874;28;20231;-52
2023/03/07 01:46:16;;;;;;;27.83;16.50;;;2.40;99.90;;;;;;5037211;28;20205;-57
2023/03/07 01:48:45;;;;;;;28.87;16.70;;;2.30;99.90;;;;;;4998920;28;20314;-48
2023/03/07 01:51:13;;;;;;;28.70;17.33;;;2.30;99.90;;;;;;5000729;28;20794;-48
2023/03/07 01:53:42;;;;;;;26.67;16.80;;;2.30;99.90;;;;;;5014444;28;20237;-50
2023/03/07 01:56:11;;;;;;;26.03;15.63;;;2.20;99.90;;;;;;5042779;28;20265;-48
2023/03/07 01:58:39;;;;;;;29.33;16.40;;;2.20;99.90;;;;;;5025159;28;20256;-59
2023/03/07 02:01:08;;;;;;;26.40;15.27;;;2.20;99.90;;;;;;5055066;28;20253;-52
2023/03/07 02:03:38;;;;;;;26.80;16.30;;;2.20;99.90;;;;;;5044702;28;20222;-57
2023/03/07 02:06:11;;;;;;;25.00;15.23;;;2.20;99.90;;;;;;5053359;28;20289;-48
2023/03/07 02:08:41;;;;;;;28.47;17.20;;;2.20;99.90;;;;;;5039380;28;20231;-53
2023/03/07 02:11:08;;;;;;;25.60;14.70;;;2.20;99.90;;;;;;5042599;28;20620;-48
2023/03/07 02:13:36;;;;;;;24.57;15.83;;;2.10;99.90;;;;;;5035466;28;20310;-57
2023/03/07 02:16:03;;;;;;;25.93;16.60;;;2.10;99.90;;;;;;5035592;28;20211;-48
2023/03/07 02:18:52;;;;;;;28.93;16.13;;;2.10;99.90;;;;;;5048120;28;20295;-47
2023/03/07 02:21:30;;;;;;;25.23;16.37;;;2.10;99.90;;;;;;5042081;28;20203;-52
2023/03/07 02:24:05;;;;;;;27.60;16.53;;;2.10;99.90;;;;;;5040108;28;20230;-49
2023/03/07 02:26:56;;;;;;;23.37;14.93;;;2.10;99.90;;;;;;5057067;28;20260;-47
2023/03/07 02:29:23;;;;;;;26.93;16.07;;;2.00;99.90;;;;;;5045899;28;20214;-57
2023/03/07 02:31:50;;;;;;;28.83;16.40;;;2.00;99.90;;;;;;5033185;28;20883;-47
2023/03/07 02:34:20;;;;;;;25.40;16.43;;;2.00;99.90;;;;;;5052751;28;20201;-51
2023/03/07 02:36:51;;;;;;;28.47;16.50;;;2.00;99.90;;;;;;5045393;28;20229;-51
2023/03/07 02:39:23;;;;;;;28.50;15.23;;;2.00;99.90;;;;;;5041100;28;20214;-58
2023/03/07 02:41:53;;;;;;;27.10;16.23;;;2.00;99.90;;;;;;5039954;28;20256;-49
2023/03/07 02:44:30;;;;;;;27.90;16.30;;;2.10;99.90;;;;;;5038669;28;20238;-57
2023/03/07 02:46:57;;;;;;;28.10;15.67;;;2.00;99.90;;;;;;5030376;28;20213;-48
2023/03/07 02:49:27;;;;;;;27.60;16.67;;;2.10;99.90;;;;;;5046769;28;20198;-56
2023/03/07 02:51:56;;;;;;;26.67;15.83;;;2.10;99.90;;;;;;5040025;28;20933;-47
2023/03/07 02:54:24;;;;;;;28.77;16.93;;;2.10;99.90;;;;;;5041662;28;20547;-56
2023/03/07 02:56:52;;;;;;;27.60;16.73;;;2.10;99.90;;;;;;5039896;28;20310;-50
2023/03/07 02:59:19;;;;;;;25.23;15.47;;;2.10;99.90;;;;;;5044287;28;20735;-54
2023/03/07 03:01:48;;;;;;;29.30;17.53;;;2.10;99.90;;;;;;5057849;28;20226;-47
2023/03/07 03:04:15;;;;;;;24.10;15.10;;;2.10;99.90;;;;;;5040454;28;20234;-50
2023/03/07 03:06:42;;;;;;;26.80;15.73;;;2.10;99.90;;;;;;5042978;28;20234;-48
2023/03/07 03:09:31;;;;;;;28.57;15.33;;;2.20;99.90;;;;;;5040398;28;20570;-57
2023/03/07 03:11:58;;;;;;;28.77;16.77;;;2.20;99.90;;;;;;5040742;28;20253;-48
2023/03/07 03:14:27;;;;;;;26.90;15.50;;;2.20;99.90;;;;;;5038974;28;20201;-56
2023/03/07 03:16:56;;;;;;;27.33;16.00;;;2.20;99.90;;;;;;5042954;28;20917;-47
2023/03/07 03:19:22;;;;;;;27.13;15.90;;;2.30;99.90;;;;;;5039972;28;20203;-57
2023/03/07 03:21:49;;;;;;;26.53;15.27;;;2.30;99.90;;;;;;5046718;28;20959;-46
2023/03/07 03:24:17;;;;;;;25.03;14.67;;;2.30;99.90;;;;;;5041395;28;20207;-48
2023/03/07 03:26:45;;;;;;;25.00;15.23;;;2.30;99.90;;;;;;5038499;28;20776;-47
2023/03/07 03:29:13;;;;;;;29.97;16.03;;;2.40;99.90;;;;;;5041277;28;20235;-47
2023/03/07 03:31:40;;;;;;;24.33;14.63;;;2.40;99.90;;;;;;5034682;28;20299;-48
2023/03/07 03:34:08;;;;;;;23.57;13.97;;;2.50;99.90;;;;;;5029566;28;20265;-46
2023/03/07 03:36:35;;;;;;;27.40;14.90;;;2.50;99.90;;;;;;5049609;28;20213;-56
2023/03/07 03:39:09;;;;;;;23.87;15.03;;;2.50;99.90;;;;;;5045219;28;20208;-52
2023/03/07 03:41:38;;;;;;;22.20;13.87;;;2.60;99.90;;;;;;5041279;28;20230;-53
2023/03/07 03:44:05;;;;;;;25.63;14.97;;;2.60;99.90;;;;;;5044720;28;20227;-46
2023/03/07 03:46:32;;;;;;;26.27;14.43;;;2.60;99.90;;;;;;5043772;28;20211;-57
2023/03/07 03:49:19;;;;;;;24.43;14.30;;;2.70;99.90;;;;;;5037435;28;20214;-52
2023/03/07 03:51:49;;;;;;;21.37;14.20;;;2.70;99.90;;;;;;5047433;28;20210;-47
2023/03/07 03:54:17;;;;;;;25.07;13.40;;;2.70;99.90;;;;;;5045479;28;20211;-54
2023/03/07 03:56:44;;;;;;;26.43;14.30;;;2.70;99.90;;;;;;5061669;28;20956;-46
2023/03/07 03:59:14;;;;;;;30.50;14.73;;;2.70;99.90;;;;;;5061804;28;20746;-47
2023/03/07 04:01:40;;;;;;;21.90;13.27;;;2.70;99.90;;;;;;5049037;28;20201;-47
2023/03/07 04:04:08;;;;;;;26.93;13.60;;;2.70;99.90;;;;;;5050917;28;20223;-49
2023/03/07 04:06:36;;;;;;;23.37;13.23;;;2.80;99.90;;;;;;5031572;28;20256;-57
2023/03/07 04:09:04;;;;;;;19.83;12.03;;;2.80;99.90;;;;;;5051183;28;20314;-50
2023/03/07 04:11:31;;;;;;;30.03;13.83;;;2.80;99.90;;;;;;5042188;28;20206;-59
2023/03/07 04:13:58;;;;;;;23.23;12.10;;;2.80;99.90;;;;;;5048982;28;20692;-48
2023/03/07 04:16:25;;;;;;;21.53;12.00;;;2.80;99.90;;;;;;5046076;28;20289;-58
2023/03/07 04:18:54;;;;;;;20.50;12.10;;;2.90;99.90;;;;;;5050876;28;20207;-48
2023/03/07 04:21:21;;;;;;;23.20;11.80;;;2.90;99.90;;;;;;5042477;28;20221;-57
2023/03/07 04:23:56;;;;;;;25.87;10.50;;;2.90;99.90;;;;;;5045477;28;20222;-46
2023/03/07 04:26:25;;;;;;;18.10;10.73;;;2.90;99.90;;;;;;5042527;28;20700;-56
2023/03/07 04:28:52;;;;;;;16.83;10.27;;;3.00;99.90;;;;;;5042473;28;20281;-48
2023/03/07 04:31:28;;;;;;;19.17;9.70;;;3.00;99.90;;;;;;5042821;28;20298;-56
2023/03/07 04:33:58;;;;;;;16.03;9.33;;;3.00;99.90;;;;;;5039481;28;20231;-47
2023/03/07 04:36:25;;;;;;;17.00;8.70;;;3.00;99.90;;;;;;5039245;28;20207;-56
2023/03/07 04:38:53;;;;;;;13.47;8.00;;;3.00;99.90;;;;;;5052251;28;20850;-50
2023/03/07 04:41:25;;;;;;;11.43;6.63;;;3.00;99.90;;;;;;5063355;28;20203;-57
2023/03/07 04:43:57;;;;;;;12.40;6.60;;;3.10;99.90;;;;;;5062530;28;20228;-48
2023/03/07 04:46:25;;;;;;;26.13;9.00;;;3.10;99.90;;;;;;5061030;28;20569;-56
2023/03/07 04:48:53;;;;;;;9.50;5.67;;;3.00;99.90;;;;;;5052425;28;20246;-48
2023/03/07 04:51:20;;;;;;;11.67;5.10;;;3.00;99.90;;;;;;5042758;28;20226;-60
2023/03/07 04:53:48;;;;;;;10.57;5.73;;;3.00;99.90;;;;;;5047356;28;20223;-49
2023/03/07 04:56:17;;;;;;;9.27;5.50;;;3.10;99.90;;;;;;5043627;28;20238;-57
2023/03/07 04:58:46;;;;;;;9.47;4.40;;;3.10;99.90;;;;;;5041086;28;20211;-50
2023/03/07 05:01:14;;;;;;;11.07;4.33;;;3.10;99.90;;;;;;5044044;28;20202;-47
2023/03/07 05:03:41;;;;;;;9.17;4.43;;;3.10;99.90;;;;;;5051860;28;20312;-47
2023/03/07 05:06:12;;;;;;;9.70;2.90;;;3.10;99.90;;;;;;5037623;28;20577;-59
2023/03/07 05:08:40;;;;;;;8.67;3.27;;;3.10;99.90;;;;;;5034175;28;20203;-46
2023/03/07 05:11:07;;;;;;;8.73;3.23;;;3.20;99.90;;;;;;5048073;28;20191;-58
2023/03/07 05:13:54;;;;;;;6.17;2.63;;;3.30;99.90;;;;;;5043639;28;20234;-56
2023/03/07 05:16:22;;;;;;;5.20;2.40;;;3.30;99.90;;;;;;5041009;28;20308;-47
2023/03/07 05:18:49;;;;;;;4.60;2.20;;;3.30;99.90;;;;;;5055005;28;20255;-47
2023/03/07 05:21:17;;;;;;;2.73;1.90;;;3.40;99.90;;;;;;5058062;28;20199;-48
2023/03/07 05:23:44;;;;;;;5.67;2.67;;;3.40;99.90;;;;;;5039840;28;20246;-46
2023/03/07 05:26:12;;;;;;;9.13;1.70;;;3.40;99.90;;;;;;5052144;28;20195;-46
2023/03/07 05:28:40;;;;;;;3.93;1.43;;;3.30;99.90;;;;;;5043250;28;20206;-45
2023/03/07 05:31:09;;;;;;;5.60;1.67;;;3.30;99.90;;;;;;5040862;28;20199;-55
2023/03/07 05:33:36;;;;;;;4.47;1.40;;;3.30;99.90;;;;;;5052465;28;20643;-46
2023/03/07 05:36:03;;;;;;;3.63;1.90;;;3.30;99.90;;;;;;5038256;28;20265;-56
2023/03/07 05:38:31;;;;;;;13.70;2.30;;;3.30;99.90;;;;;;5045931;28;20697;-50
2023/03/07 05:40:58;;;;;;;5.43;1.37;;;3.30;99.90;;;;;;5046961;28;20298;-57
2023/03/07 05:43:26;;;;;;;7.13;1.67;;;3.30;99.90;;;;;;5040899;28;20211;-48
2023/03/07 05:45:53;;;;;;;6.40;1.80;;;3.30;99.90;;;;;;5061735;28;20221;-56
2023/03/07 05:48:22;;;;;;;5.20;1.60;;;3.30;99.90;;;;;;5057009;28;20195;-47
2023/03/07 05:50:52;;;;;;;6.53;1.60;;;3.30;99.90;;;;;;5037179;28;20209;-52
2023/03/07 05:53:19;;;;;;;4.93;1.77;;;3.30;99.90;;;;;;5042662;28;20211;-46
2023/03/07 05:55:47;;;;;;;3.30;1.23;;;3.30;99.90;;;;;;5040579;28;20191;-49
2023/03/07 05:58:16;;;;;;;3.70;1.50;;;3.30;99.90;;;;;;5047591;28;20268;-50
2023/03/07 06:00:45;;;;;;;8.83;1.50;;;3.30;99.90;;;;;;5050409;28;20273;-53
2023/03/07 06:03:12;;;;;;;2.63;0.77;;;3.30;99.90;;;;;;5042143;28;20250;-46
2023/03/07 06:05:41;;;;;;;4.37;1.20;;;3.40;99.90;;;;;;5040866;28;20195;-57
2023/03/07 06:08:07;;;;;;;7.23;1.40;;;3.40;99.90;;;;;;5035264;28;20208;-48
2023/03/07 06:10:36;;;;;;;5.47;1.30;;;3.40;99.90;;;;;;5051308;28;20630;-57
2023/03/07 06:13:04;;;;;;;5.47;1.43;;;3.40;99.90;;;;;;5050676;28;21004;-47
2023/03/07 06:15:30;;;;;;;1.63;0.60;;;3.40;99.90;;;;;;5056713;28;20191;-57
2023/03/07 06:18:05;;;;;;;2.70;0.67;;;3.40;99.90;;;;;;5048209;28;20277;-49
2023/03/07 06:20:32;;;;;;;4.00;1.17;;;3.40;99.90;;;;;;5051861;28;20234;-56
2023/03/07 06:23:00;;;;;;;1.27;0.40;;;3.50;99.90;;;;;;5040316;28;20213;-50
2023/03/07 06:25:27;;;;;;;3.57;1.47;;;3.50;99.90;;;;;;5037611;28;20224;-53
2023/03/07 06:27:58;;;;;;;11.20;1.07;;;3.50;99.90;;;;;;5037452;28;20900;-45
2023/03/07 06:30:25;;;;;;;5.77;1.23;;;3.50;99.90;;;;;;5049562;28;20653;-50
2023/03/07 06:32:52;;;;;;;3.17;0.80;;;3.50;99.90;;;;;;5046259;28;20232;-49
2023/03/07 06:35:20;;;;;;;4.67;0.80;;;3.50;99.90;;;;;;5056690;28;20191;-45
2023/03/07 06:37:50;;;;;;;6.30;1.17;;;3.60;99.90;;;;;;5034850;28;20233;-50
2023/03/07 06:40:19;;;;;;;4.33;1.23;;;3.50;99.90;;;;;;5037742;28;20207;-48
2023/03/07 06:42:46;;;;;;;3.70;1.10;;;3.60;99.90;;;;;;5039551;28;20206;-52
2023/03/07 06:45:14;;;;;;;2.57;0.80;;;3.60;99.90;;;;;;5049144;28;20700;-47
2023/03/07 06:47:40;;;;;;;3.90;0.97;;;3.50;99.90;;;;;;5048286;28;20875;-57
2023/03/07 06:50:11;;;;;;;2.57;0.87;;;3.50;99.90;;;;;;5042928;28;20282;-56
2023/03/07 06:52:39;;;;;;;7.33;1.20;;;3.50;99.90;;;;;;5053104;28;20805;-53
2023/03/07 06:55:07;;;;;;;2.50;1.10;;;3.60;99.90;;;;;;5029248;28;20330;-55
2023/03/07 06:57:37;;;;;;;4.90;1.27;;;3.60;99.90;;;;;;5047087;28;20897;-49
2023/03/07 07:00:05;;;;;;;5.37;0.90;;;3.60;99.90;;;;;;5044275;28;20225;-55
2023/03/07 07:02:33;;;;;;;2.87;0.80;;;3.60;99.90;;;;;;5038278;28;20328;-45
2023/03/07 07:05:01;;;;;;;5.80;1.33;;;3.60;99.90;;;;;;5042903;28;20207;-55
2023/03/07 07:07:30;;;;;;;2.37;0.80;;;3.60;99.90;;;;;;5038249;28;20187;-46
2023/03/07 07:09:58;;;;;;;2.83;1.10;;;3.60;99.90;;;;;;5040251;28;20291;-50
2023/03/07 07:12:24;;;;;;;5.93;1.20;;;3.60;99.90;;;;;;5039285;28;20230;-49
2023/03/07 07:15:14;;;;;;;1.87;0.67;;;3.60;99.90;;;;;;5061873;28;20210;-47
2023/03/07 07:17:42;;;;;;;5.17;1.50;;;3.50;99.90;;;;;;5054544;28;20650;-49
2023/03/07 07:20:10;;;;;;;6.27;1.20;;;3.50;99.90;;;;;;5038993;28;20269;-52
2023/03/07 07:22:39;;;;;;;2.83;0.87;;;3.50;99.90;;;;;;5056367;28;20218;-55
2023/03/07 07:25:07;;;;;;;3.63;1.10;;;3.50;99.90;;;;;;5044001;28;20207;-56
2023/03/07 07:27:35;;;;;;;7.13;1.27;;;3.60;99.90;;;;;;5038196;28;20662;-55
2023/03/07 07:30:25;;;;;;;3.83;0.93;;;3.60;99.90;;;;;;5046760;28;20345;-53
2023/03/07 07:32:52;;;;;;;3.90;0.90;;;3.60;99.90;;;;;;5038640;28;20237;-51
2023/03/07 07:35:22;;;;;;;4.13;0.80;;;3.60;99.90;;;;;;5034100;28;20215;-51
2023/03/07 07:37:50;;;;;;;3.53;1.00;;;3.70;99.90;;;;;;5051924;28;20277;-48
2023/03/07 07:40:17;;;;;;;4.67;0.80;;;3.70;99.90;;;;;;5049374;28;20290;-46
2023/03/07 07:42:53;;;;;;;1.50;0.63;;;3.70;99.90;;;;;;5041119;28;20226;-50
2023/03/07 07:45:42;;;;;;;3.57;0.80;;;3.60;99.90;;;;;;5055414;28;20294;-56
2023/03/07 07:48:13;;;;;;;5.20;0.63;;;3.70;99.90;;;;;;5042406;28;20195;-52
2023/03/07 07:50:41;;;;;;;3.10;1.00;;;3.80;99.90;;;;;;5036510;28;20217;-46
2023/03/07 07:53:31;;;;;;;3.63;1.40;;;3.80;99.90;;;;;;5041820;28;20312;-55
2023/03/07 07:55:58;;;;;;;5.20;1.87;;;3.90;99.90;;;;;;5049037;28;20199;-50
2023/03/07 07:58:25;;;;;;;7.40;0.97;;;3.90;99.90;;;;;;5046071;28;20222;-56
2023/03/07 08:00:54;;;;;;;3.53;1.10;;;3.90;99.90;;;;;;5056782;28;20203;-52
2023/03/07 08:03:22;;;;;;;5.83;1.30;;;3.90;99.90;;;;;;5043631;28;20723;-52
2023/03/07 08:05:50;;;;;;;4.67;1.10;;;3.90;99.90;;;;;;5046041;28;20191;-47
2023/03/07 08:08:20;;;;;;;5.57;0.80;;;4.00;99.90;;;;;;5037754;28;20198;-57
2023/03/07 08:10:48;;;;;;;6.77;1.03;;;4.00;99.90;;;;;;5049554;28;20226;-50
2023/03/07 08:13:17;;;;;;;3.30;0.87;;;4.00;99.90;;;;;;5044741;28;20242;-56
2023/03/07 08:15:44;;;;;;;4.90;1.17;;;4.00;99.90;;;;;;5043158;28;20192;-49
2023/03/07 08:18:12;;;;;;;5.40;1.00;;;3.90;99.90;;;;;;5044401;28;20226;-47
2023/03/07 08:20:40;;;;;;;4.43;1.30;;;3.90;99.90;;;;;;5048701;28;20529;-45
2023/03/07 08:23:08;;;;;;;3.17;1.23;;;4.00;99.90;;;;;;5035551;28;20274;-48
2023/03/07 08:25:35;;;;;;;4.00;0.90;;;3.90;99.90;;;;;;5046800;28;20196;-47
2023/03/07 08:28:02;;;;;;;3.20;0.73;;;3.90;99.90;;;;;;5057235;28;20206;-45
2023/03/07 08:30:31;;;;;;;5.20;1.47;;;3.90;99.90;;;;;;5046143;28;20286;-55
2023/03/07 08:33:22;;;;;;;5.10;0.73;;;3.90;99.90;;;;;;5056229;28;20665;-53
2023/03/07 08:35:49;;;;;;;2.93;1.00;;;3.80;99.90;;;;;;5050920;28;20207;-45
2023/03/07 08:38:16;;;;;;;7.93;1.50;;;3.80;99.90;;;;;;5045908;28;21072;-57
2023/03/07 08:40:43;;;;;;;4.43;1.03;;;3.80;99.90;;;;;;5041985;28;20824;-45
2023/03/07 08:43:10;;;;;;;8.27;0.97;;;3.90;99.90;;;;;;5051437;28;20261;-51
2023/03/07 08:45:58;;;;;;;4.30;0.90;;;3.90;99.90;;;;;;5050484;28;20353;-47
2023/03/07 08:48:27;;;;;;;4.07;1.27;;;3.90;99.90;;;;;;5042498;28;20294;-56
2023/03/07 08:50:55;;;;;;;10.17;1.10;;;4.00;99.90;;;;;;5056436;28;20226;-47
2023/03/07 08:53:23;;;;;;;1.97;0.90;;;4.00;99.90;;;;;;5035656;28;20230;-58
2023/03/07 08:55:50;;;;;;;5.37;1.53;;;4.00;99.90;;;;;;5040495;28;20264;-55
2023/03/07 08:58:17;;;;;;;4.63;1.10;;;4.10;99.90;;;;;;5052794;28;20219;-46
2023/03/07 09:00:44;;;;;;;5.33;1.40;;;4.10;99.90;;;;;;5046533;28;20218;-55
2023/03/07 09:03:13;;;;;;;5.47;1.57;;;4.20;99.90;;;;;;5048073;28;20235;-47
2023/03/07 09:05:41;;;;;;;12.33;3.03;;;4.20;99.90;;;;;;5046827;28;20650;-46
2023/03/07 09:08:08;;;;;;;3.73;1.60;;;4.20;99.90;;;;;;5042156;28;20876;-46
2023/03/07 09:10:38;;;;;;;4.77;1.10;;;4.30;99.90;;;;;;5032186;28;20203;-50
2023/03/07 09:13:26;;;;;;;9.10;1.47;;;4.30;99.90;;;;;;5055351;28;20523;-46
2023/03/07 09:15:52;;;;;;;5.90;1.90;;;4.30;99.90;;;;;;5044309;28;20203;-55
2023/03/07 09:18:22;;;;;;;10.33;1.30;;;4.30;99.90;;;;;;5043755;28;20204;-54
2023/03/07 09:20:51;;;;;;;5.50;1.47;;;4.30;99.90;;;;;;5064897;28;20579;-54
2023/03/07 09:23:17;;;;;;;8.40;1.33;;;4.20;99.90;;;;;;5051502;28;20491;-51
2023/03/07 09:25:44;;;;;;;5.40;1.50;;;4.10;99.90;;;;;;5036517;28;20222;-56
2023/03/07 09:28:11;;;;;;;5.87;1.30;;;3.70;99.90;;;;;;5049770;28;20211;-46
2023/03/07 09:30:38;;;;;;;4.10;0.80;;;3.30;99.90;;;;;;5055319;28;20209;-50
2023/03/07 09:33:05;;;;;;;9.40;1.23;;;3.00;99.90;;;;;;5035292;28;20772;-45
2023/03/07 09:35:31;;;;;;;4.37;1.00;;;2.90;99.90;;;;;;5056546;28;20199;-46
2023/03/07 09:38:00;;;;;;;2.37;0.80;;;2.80;99.90;;;;;;5052379;28;20674;-54
2023/03/07 09:40:27;;;;;;;5.57;1.30;;;2.80;99.90;;;;;;5040792;28;20221;-47
2023/03/07 09:43:00;;;;;;;3.23;1.07;;;2.80;99.90;;;;;;5045046;28;20231;-55
2023/03/07 09:45:52;;;;;;;9.63;2.00;;;2.80;99.90;;;;;;5047102;28;20202;-46
2023/03/07 09:48:53;;;;;;;3.97;0.93;;;2.70;99.90;;;;;;5041066;28;20283;-46
2023/03/07 09:51:23;;;;;;;6.40;1.20;;;2.70;99.90;;;;;;5051096;28;20198;-45
2023/03/07 09:53:56;;;;;;;6.77;1.20;;;2.70;99.90;;;;;;5054611;28;20211;-58
2023/03/07 09:56:46;;;;;;;6.83;1.47;;;2.70;99.90;;;;;;5030891;28;20222;-52
2023/03/07 09:59:21;;;;;;;7.77;1.53;;;2.80;99.90;;;;;;5046017;28;20834;-45
2023/03/07 10:01:50;;;;;;;5.30;1.00;;;2.80;99.90;;;;;;5041989;28;20211;-53
2023/03/07 10:04:22;;;;;;;5.13;1.07;;;2.80;99.90;;;;;;5042327;28;20914;-50
2023/03/07 10:06:54;;;;;;;4.83;1.30;;;2.90;99.90;;;;;;5061740;28;20228;-54
2023/03/07 10:09:24;;;;;;;4.27;1.10;;;2.90;99.90;;;;;;5044758;28;20213;-45
2023/03/07 10:12:17;;;;;;;3.97;1.30;;;3.00;99.90;;;;;;5040552;28;20217;-54
2023/03/07 10:14:57;;;;;;;4.27;0.83;;;3.10;99.90;;;;;;5044462;28;20203;-55
2023/03/07 10:17:34;;;;;;;5.80;1.27;;;3.20;99.90;;;;;;5048768;28;20211;-45
2023/03/07 10:20:11;;;;;;;5.67;0.80;;;3.30;99.90;;;;;;5042206;28;20245;-50
2023/03/07 10:22:48;;;;;;;5.97;1.20;;;3.30;99.90;;;;;;5053151;28;20731;-46
2023/03/07 10:25:25;;;;;;;4.20;0.80;;;3.40;99.90;;;;;;5041034;28;20198;-45
2023/03/07 10:27:58;;;;;;;6.83;1.07;;;3.40;99.90;;;;;;5029300;28;20268;-56
2023/03/07 10:30:26;;;;;;;3.93;0.80;;;3.20;99.90;;;;;;5054983;28;20687;-46
2023/03/07 10:32:57;;;;;;;1.93;0.90;;;2.80;99.90;;;;;;5044714;28;20306;-55
2023/03/07 10:35:31;;;;;;;3.03;0.70;;;2.60;99.90;;;;;;5062123;28;20199;-50
2023/03/07 10:38:03;;;;;;;2.40;0.70;;;2.50;99.90;;;;;;5058013;28;20202;-57
2023/03/07 10:40:39;;;;;;;5.10;0.80;;;2.50;99.90;;;;;;5054189;28;20215;-48
2023/03/07 10:43:06;;;;;;;5.07;1.00;;;2.50;99.90;;;;;;5025024;28;21022;-46
2023/03/07 10:45:33;;;;;;;5.30;1.00;;;2.60;99.90;;;;;;5048854;28;20203;-48
2023/03/07 10:48:05;;;;;;;5.07;0.97;;;2.70;99.90;;;;;;5041710;28;20290;-52
2023/03/07 10:50:40;;;;;;;2.90;0.87;;;2.80;99.90;;;;;;5055209;28;20202;-45
2023/03/07 10:53:22;;;;;;;5.17;0.97;;;3.00;99.90;;;;;;5048469;28;20206;-47
2023/03/07 10:55:50;;;;;;;2.27;0.97;;;3.20;99.90;;;;;;5045661;28;20203;-58
2023/03/07 10:58:20;;;;;;;8.00;1.53;;;3.40;99.90;;;;;;5033721;28;20203;-49
2023/03/07 11:00:58;;;;;;;5.00;1.20;;;3.60;99.90;;;;;;5044441;28;20309;-55
2023/03/07 11:03:30;;;;;;;5.87;1.23;;;3.70;99.90;;;;;;5046481;28;20227;-44
2023/03/07 11:05:57;;;;;;;7.90;1.67;;;3.90;99.90;;;;;;5044896;28;20203;-56
2023/03/07 11:08:30;;;;;;;9.10;1.60;;;4.10;99.90;;;;;;5065768;28;20513;-46
2023/03/07 11:11:00;;;;;;;10.50;1.30;;;4.20;99.90;;;;;;5062756;28;20297;-56
2023/03/07 11:13:27;;;;;;;6.33;1.10;;;4.40;99.90;;;;;;5046335;28;20230;-50
2023/03/07 11:16:10;;;;;;;5.73;1.30;;;4.40;99.90;;;;;;5051782;28;20580;-56
2023/03/07 11:18:40;;;;;;;5.10;0.90;;;4.60;99.90;;;;;;5048942;28;20286;-45
2023/03/07 11:21:25;;;;;;;1.10;0.80;;;4.60;99.90;;;;;;5054948;28;20195;-50
2023/03/07 11:23:59;;;;;;;4.13;0.77;;;4.50;99.90;;;;;;5043423;28;20777;-45
2023/03/07 11:26:31;;;;;;;3.87;0.90;;;4.50;99.90;;;;;;5056027;28;20226;-45
2023/03/07 11:29:07;;;;;;;4.07;0.70;;;4.50;99.90;;;;;;5035153;28;22135;-45
2023/03/07 11:31:40;;;;;;;3.47;1.13;;;4.40;99.90;;;;;;5053723;28;20201;-53
2023/03/07 11:34:22;;;;;;;3.50;0.73;;;4.40;99.90;;;;;;5052881;28;20219;-45
2023/03/07 11:36:54;;;;;;;6.33;1.00;;;4.50;99.90;;;;;;5042936;28;20195;-57
2023/03/07 11:39:29;;;;;;;2.80;1.00;;;4.60;99.90;;;;;;5049687;28;21907;-48
2023/03/07 11:42:04;;;;;;;3.73;1.00;;;4.70;99.90;;;;;;5041396;28;20194;-45
2023/03/07 11:44:37;;;;;;;5.50;0.83;;;4.80;99.90;;;;;;5034919;28;20314;-45
2023/03/07 11:47:28;;;;;;;2.73;0.80;;;5.00;99.90;;;;;;5053509;28;20202;-49
2023/03/07 11:50:08;;;;;;;4.27;1.20;;;5.10;99.90;;;;;;5048797;28;20186;-46
2023/03/07 11:53:00;;;;;;;3.33;0.80;;;5.20;99.90;;;;;;5044279;28;20705;-56
2023/03/07 11:55:32;;;;;;;9.97;1.10;;;5.00;99.90;;;;;;5052401;28;20203;-45
2023/03/07 11:58:20;;;;;;;6.23;1.43;;;5.10;99.90;;;;;;5046353;28;20261;-51
2023/03/07 12:01:00;;;;;;;10.17;1.23;;;5.30;99.90;;;;;;5038496;28;20222;-55
2023/03/07 12:03:54;;;;;;;4.37;1.10;;;5.50;99.90;;;;;;5056160;28;20218;-50
2023/03/07 12:06:33;;;;;;;3.47;1.00;;;5.70;99.90;;;;;;5046846;28;20195;-49
2023/03/07 12:09:12;;;;;;;4.50;1.00;;;5.70;99.90;;;;;;5043765;28;20199;-49
2023/03/07 12:11:55;;;;;;;2.90;1.10;;;5.50;99.90;;;;;;5052400;28;20202;-56
2023/03/07 12:14:32;;;;;;;6.33;1.00;;;5.40;99.90;;;;;;5064431;28;20290;-46
2023/03/07 12:17:13;;;;;;;5.07;0.90;;;5.50;99.90;;;;;;5038387;28;20202;-46
2023/03/07 12:20:11;;;;;;;7.30;1.43;;;5.60;99.90;;;;;;5050638;28;20213;-57
2023/03/07 12:22:46;;;;;;;3.77;0.87;;;5.60;99.30;;;;;;5049136;28;20226;-56
2023/03/07 12:25:23;;;;;;;2.13;0.90;;;5.50;99.00;;;;;;5045528;28;20194;-48
2023/03/07 12:28:06;;;;;;;7.83;1.00;;;5.40;99.90;;;;;;5055644;28;20656;-56
2023/03/07 12:30:44;;;;;;;6.30;1.20;;;5.50;99.90;;;;;;5037209;28;20276;-54
2023/03/07 12:33:18;;;;;;;6.23;0.77;;;5.50;99.90;;;;;;5057819;28;20207;-51
2023/03/07 12:35:49;;;;;;;6.10;0.80;;;5.40;99.90;;;;;;5052970;28;20198;-56
2023/03/07 12:38:26;;;;;;;6.33;0.97;;;5.40;99.90;;;;;;5057659;28;20598;-49
2023/03/07 12:40:58;;;;;;;7.33;1.27;;;5.20;99.90;;;;;;5046959;28;20215;-49
2023/03/07 12:43:31;;;;;;;5.07;0.90;;;5.10;99.90;;;;;;5052578;28;20539;-50
2023/03/07 12:46:10;;;;;;;4.03;1.03;;;5.00;99.90;;;;;;5032787;28;20983;-51
2023/03/07 12:48:43;;;;;;;1.93;0.70;;;4.90;99.90;;;;;;5052879;28;20230;-56
2023/03/07 12:51:18;;;;;;;1.70;0.70;;;4.70;99.90;;;;;;5049066;28;20856;-46
2023/03/07 12:53:49;;;;;;;8.77;4.53;;;4.60;97.80;;;;;;5052450;28;20246;-56
2023/03/07 12:56:20;;;;;;;7.53;1.10;;;4.60;99.00;;;;;;5056793;28;20214;-47
2023/03/07 12:58:50;;;;;;;4.37;0.70;;;4.70;99.90;;;;;;5046861;28;20199;-55
2023/03/07 13:01:23;;;;;;;6.03;1.17;;;4.80;99.90;;;;;;5040355;28;20241;-47
2023/03/07 13:03:55;;;;;;;3.43;1.00;;;5.00;99.30;;;;;;5047649;28;20705;-56
2023/03/07 13:06:23;;;;;;;5.10;0.80;;;5.20;99.80;;;;;;5057639;28;21116;-49
2023/03/07 13:08:54;;;;;;;5.40;1.10;;;5.30;99.90;;;;;;5040213;28;20206;-58
2023/03/07 13:11:22;;;;;;;3.43;1.30;;;5.40;99.90;;;;;;5044638;28;20199;-47